Time;durP1;ratioP1;P1;durP2;ratioP2;P2;SDS_P1;SDS_P2;PMS_P1;PMS_P2;Temp;Humidity;BMP_temperature;BMP_pressure;BME280_temperature;BME280_humidity;BME280_pressure;Samples;Min_cycle;Max_cycle;Signal;HPM_P1;HPM_P2
2022/05/12 00:04:08;;;;;;;12.27;2.88;;;;;;;;;;10062421;28;20134;-65
2022/05/12 00:09:05;;;;;;;12.18;2.63;;;;;;;;;;10061662;28;20062;-66
2022/05/12 00:14:01;;;;;;;14.85;3.10;;;;;;;;;;10063626;28;20785;-65
2022/05/12 00:18:58;;;;;;;13.07;3.67;;;;;;;;;;10054700;28;21576;-66
2022/05/12 00:23:57;;;;;;;13.20;2.40;;;;;;;;;;10059556;28;20141;-65
2022/05/12 00:28:56;;;;;;;12.30;2.85;;;;;;;;;;10062775;28;20070;-65
2022/05/12 00:33:52;;;;;;;9.95;2.50;;;;;;;;;;10061153;28;20139;-63
2022/05/12 00:38:48;;;;;;;9.90;2.60;;;;;;;;;;10067084;28;20525;-63
2022/05/12 00:43:46;;;;;;;10.32;2.78;;;;;;;;;;10061765;28;20118;-63
2022/05/12 00:48:43;;;;;;;14.63;2.80;;;;;;;;;;10060897;28;20073;-66
2022/05/12 00:53:40;;;;;;;11.02;3.25;;;;;;;;;;10062912;28;20059;-66
2022/05/12 00:58:37;;;;;;;12.20;2.60;;;;;;;;;;10067165;28;20043;-63
2022/05/12 01:03:34;;;;;;;9.45;2.53;;;;;;;;;;10067134;28;20051;-63
2022/05/12 01:08:30;;;;;;;11.88;2.83;;;;;;;;;;10067374;28;20104;-66
2022/05/12 01:13:28;;;;;;;12.90;2.75;;;;;;;;;;10066233;28;20094;-64
2022/05/12 01:18:25;;;;;;;11.75;3.38;;;;;;;;;;10066051;28;20150;-64
2022/05/12 01:23:38;;;;;;;15.48;3.42;;;;;;;;;;10060220;28;20047;-65
2022/05/12 01:28:35;;;;;;;11.55;3.15;;;;;;;;;;10054420;28;20131;-65
2022/05/12 01:33:31;;;;;;;14.68;3.25;;;;;;;;;;10040886;28;20102;-65
2022/05/12 01:38:28;;;;;;;12.45;4.03;;;;;;;;;;10062400;28;20083;-64
2022/05/12 01:43:24;;;;;;;8.45;2.63;;;;;;;;;;10061823;28;20078;-66
2022/05/12 01:48:20;;;;;;;11.13;3.10;;;;;;;;;;10062435;28;20130;-66
2022/05/12 01:53:17;;;;;;;9.45;2.95;;;;;;;;;;10046462;28;20130;-66
2022/05/12 01:58:18;;;;;;;10.68;2.72;;;;;;;;;;10055158;28;20043;-66
2022/05/12 02:03:15;;;;;;;9.80;2.53;;;;;;;;;;10036536;28;20059;-64
2022/05/12 02:08:13;;;;;;;5.68;2.15;;;;;;;;;;10111938;28;20547;-67
2022/05/12 02:13:10;;;;;;;7.75;2.35;;;;;;;;;;10060865;28;20070;-67
2022/05/12 02:18:07;;;;;;;7.00;2.40;;;;;;;;;;10062043;28;20051;-67
2022/05/12 02:23:03;;;;;;;7.20;2.40;;;;;;;;;;10059490;28;20051;-67
2022/05/12 02:28:00;;;;;;;10.57;2.88;;;;;;;;;;10062381;28;20093;-66
2022/05/12 02:32:56;;;;;;;8.13;3.53;;;;;;;;;;10050305;28;20122;-64
2022/05/12 02:37:52;;;;;;;10.93;4.47;;;;;;;;;;10061475;28;20094;-65
2022/05/12 02:42:49;;;;;;;11.98;5.20;;;;;;;;;;10060197;28;20110;-64
2022/05/12 02:47:45;;;;;;;13.18;5.00;;;;;;;;;;10062237;28;20576;-65
2022/05/12 02:52:42;;;;;;;10.05;4.72;;;;;;;;;;10065472;28;20142;-66
2022/05/12 02:57:39;;;;;;;9.88;2.60;;;;;;;;;;10060863;28;20089;-65
2022/05/12 03:02:35;;;;;;;11.80;2.00;;;;;;;;;;10063123;28;20066;-65
2022/05/12 03:07:33;;;;;;;4.80;1.52;;;;;;;;;;10064290;28;20059;-66
2022/05/12 03:12:30;;;;;;;4.22;1.30;;;;;;;;;;10062405;28;20122;-64
2022/05/12 03:17:26;;;;;;;4.18;1.42;;;;;;;;;;10058353;28;20044;-66
2022/05/12 03:22:23;;;;;;;3.55;1.20;;;;;;;;;;10051083;28;20122;-66
2022/05/12 03:27:19;;;;;;;6.40;1.70;;;;;;;;;;10061090;28;20055;-66
2022/05/12 03:32:16;;;;;;;4.25;1.48;;;;;;;;;;10062386;28;20497;-66
2022/05/12 03:37:12;;;;;;;5.57;1.70;;;;;;;;;;10058062;28;20481;-66
2022/05/12 03:42:12;;;;;;;4.72;2.38;;;;;;;;;;10066260;28;20142;-66
2022/05/12 03:47:09;;;;;;;9.15;2.45;;;;;;;;;;10061595;28;20532;-65
2022/05/12 03:52:05;;;;;;;10.43;2.22;;;;;;;;;;10064711;28;20053;-65
2022/05/12 03:57:02;;;;;;;8.57;2.42;;;;;;;;;;10057087;28;20051;-65
2022/05/12 04:01:58;;;;;;;6.95;1.60;;;;;;;;;;10077664;28;20158;-65
2022/05/12 04:06:55;;;;;;;6.40;2.10;;;;;;;;;;10059534;28;20039;-65
2022/05/12 04:11:51;;;;;;;8.65;2.22;;;;;;;;;;10062762;28;20075;-66
2022/05/12 04:16:47;;;;;;;13.20;2.83;;;;;;;;;;10041017;28;20477;-65
2022/05/12 04:21:45;;;;;;;10.18;2.22;;;;;;;;;;10047172;28;20047;-66
2022/05/12 04:26:41;;;;;;;8.68;2.50;;;;;;;;;;10042468;28;20101;-65
2022/05/12 04:31:40;;;;;;;5.82;2.60;;;;;;;;;;10043425;28;20040;-64
2022/05/12 04:36:36;;;;;;;10.27;2.78;;;;;;;;;;10053679;28;20108;-63
2022/05/12 04:41:33;;;;;;;7.95;2.75;;;;;;;;;;10038962;28;20574;-63
2022/05/12 04:46:29;;;;;;;11.65;2.72;;;;;;;;;;10046863;28;20885;-64
2022/05/12 04:51:26;;;;;;;10.98;3.08;;;;;;;;;;10051921;28;20047;-64
2022/05/12 04:56:22;;;;;;;7.30;3.53;;;;;;;;;;10041913;28;20587;-65
2022/05/12 05:01:19;;;;;;;8.10;2.83;;;;;;;;;;10053905;28;20100;-65
2022/05/12 05:06:15;;;;;;;16.92;3.80;;;;;;;;;;10049449;28;20488;-65
2022/05/12 05:11:12;;;;;;;15.77;3.30;;;;;;;;;;10051661;28;20126;-64
2022/05/12 05:16:08;;;;;;;12.90;2.97;;;;;;;;;;10050214;28;20163;-65
2022/05/12 05:21:05;;;;;;;13.05;3.50;;;;;;;;;;10048053;28;20615;-65
2022/05/12 05:26:02;;;;;;;9.48;2.45;;;;;;;;;;10036550;28;20098;-65
2022/05/12 05:30:59;;;;;;;10.65;3.00;;;;;;;;;;10067427;28;20074;-65
2022/05/12 05:35:57;;;;;;;9.55;3.22;;;;;;;;;;10035047;28;21055;-66
2022/05/12 05:40:53;;;;;;;13.85;2.63;;;;;;;;;;10037171;28;20051;-63
2022/05/12 05:45:50;;;;;;;17.67;2.53;;;;;;;;;;10039342;28;20111;-63
2022/05/12 05:56:03;;;;;;;10.10;2.47;;;;;;;;;;10038786;28;20476;-63
2022/05/12 06:00:59;;;;;;;7.72;2.70;;;;;;;;;;10040224;28;20048;-65
2022/05/12 06:05:57;;;;;;;11.88;2.50;;;;;;;;;;10034609;28;20059;-65
2022/05/12 06:10:53;;;;;;;12.40;2.25;;;;;;;;;;10043479;28;20444;-65
2022/05/12 06:15:50;;;;;;;10.00;2.75;;;;;;;;;;10062464;28;20546;-64
2022/05/12 06:20:49;;;;;;;9.90;2.13;;;;;;;;;;10068115;28;20716;-65
2022/05/12 06:25:45;;;;;;;9.38;2.50;;;;;;;;;;10065017;28;20317;-65
2022/05/12 06:30:42;;;;;;;8.40;1.95;;;;;;;;;;10066076;28;20075;-65
2022/05/12 06:35:38;;;;;;;7.05;2.30;;;;;;;;;;10060532;28;20097;-66
2022/05/12 06:40:35;;;;;;;11.85;2.30;;;;;;;;;;10066658;28;20048;-65
2022/05/12 06:45:32;;;;;;;11.23;2.20;;;;;;;;;;10061140;28;20158;-63
2022/05/12 06:50:29;;;;;;;10.27;1.90;;;;;;;;;;10040994;28;20519;-65
2022/05/12 06:55:27;;;;;;;10.02;2.03;;;;;;;;;;10064652;28;20500;-66
2022/05/12 07:00:24;;;;;;;8.77;2.10;;;;;;;;;;10059600;28;20081;-63
2022/05/12 07:05:22;;;;;;;6.75;1.90;;;;;;;;;;10046627;28;20082;-63
2022/05/12 07:10:20;;;;;;;5.90;1.50;;;;;;;;;;10047651;28;20721;-64
2022/05/12 07:15:16;;;;;;;7.72;1.85;;;;;;;;;;10035518;28;20505;-64
2022/05/12 07:31:01;;;;;;;8.02;1.70;;;;;;;;;;10056514;28;20055;-63
2022/05/12 07:36:07;;;;;;;9.70;2.13;;;;;;;;;;10059238;28;20039;-63
2022/05/12 07:41:09;;;;;;;6.00;1.42;;;;;;;;;;10052348;28;20082;-62
2022/05/12 07:46:06;;;;;;;7.70;1.67;;;;;;;;;;10036367;28;20051;-63
2022/05/12 07:51:03;;;;;;;3.78;1.08;;;;;;;;;;10081660;28;20512;-62
2022/05/12 07:55:59;;;;;;;6.25;1.20;;;;;;;;;;10076630;28;20508;-63
2022/05/12 08:00:56;;;;;;;8.20;1.58;;;;;;;;;;10065702;28;20079;-65
2022/05/12 08:05:53;;;;;;;11.57;1.40;;;;;;;;;;10042574;28;20043;-63
2022/05/12 08:10:49;;;;;;;6.53;2.92;;;;;;;;;;10043161;28;20136;-63
2022/05/12 08:15:47;;;;;;;8.23;2.90;;;;;;;;;;10036545;28;20105;-64
2022/05/12 08:20:46;;;;;;;7.10;1.83;;;;;;;;;;10027955;28;20134;-64
2022/05/12 08:25:43;;;;;;;9.65;1.80;;;;;;;;;;10031806;28;20159;-63
2022/05/12 08:30:39;;;;;;;7.97;1.50;;;;;;;;;;10031229;28;20079;-63
2022/05/12 08:35:36;;;;;;;6.15;1.40;;;;;;;;;;10030817;28;20109;-62
2022/05/12 08:40:38;;;;;;;5.65;1.60;;;;;;;;;;10029626;28;20206;-63
2022/05/12 08:45:35;;;;;;;5.88;1.48;;;;;;;;;;10036113;28;20110;-63
2022/05/12 08:50:36;;;;;;;7.32;1.40;;;;;;;;;;10042216;28;20082;-63
2022/05/12 08:55:41;;;;;;;5.70;1.50;;;;;;;;;;10020332;28;20118;-63
2022/05/12 09:00:43;;;;;;;6.38;1.30;;;;;;;;;;10041446;28;20274;-63
2022/05/12 09:05:44;;;;;;;6.82;1.50;;;;;;;;;;10034640;28;20139;-63
2022/05/12 09:10:47;;;;;;;6.47;1.55;;;;;;;;;;10046193;28;20130;-63
2022/05/12 09:15:49;;;;;;;6.85;1.58;;;;;;;;;;10071201;28;20127;-62
2022/05/12 09:20:45;;;;;;;9.68;1.17;;;;;;;;;;10068722;28;20535;-63
2022/05/12 09:25:43;;;;;;;8.75;1.63;;;;;;;;;;10060732;28;20524;-62
2022/05/12 09:30:42;;;;;;;6.13;1.42;;;;;;;;;;10064775;28;20059;-62
2022/05/12 09:35:38;;;;;;;9.05;1.33;;;;;;;;;;10077253;28;20557;-63
2022/05/12 09:40:35;;;;;;;4.72;1.13;;;;;;;;;;10032149;28;20130;-62
2022/05/12 09:45:33;;;;;;;6.57;0.90;;;;;;;;;;10027351;28;20048;-62
2022/05/12 09:50:30;;;;;;;3.08;0.85;;;;;;;;;;10036065;28;20098;-62
2022/05/12 09:55:27;;;;;;;6.85;1.30;;;;;;;;;;10037459;28;20051;-62
2022/05/12 10:00:26;;;;;;;3.35;0.75;;;;;;;;;;10088229;28;20053;-62
2022/05/12 10:10:40;;;;;;;5.38;1.20;;;;;;;;;;10246315;28;20069;-62
2022/05/12 10:15:37;;;;;;;6.65;1.10;;;;;;;;;;10250257;28;20115;-62
2022/05/12 10:20:37;;;;;;;6.47;1.15;;;;;;;;;;10260948;28;20124;-62
2022/05/12 10:25:47;;;;;;;5.25;1.08;;;;;;;;;;10257690;28;20082;-62
2022/05/12 10:30:53;;;;;;;3.22;0.80;;;;;;;;;;10254585;28;20141;-62
2022/05/12 10:35:55;;;;;;;4.93;0.75;;;;;;;;;;10264475;28;20053;-62
2022/05/12 10:41:02;;;;;;;5.88;0.80;;;;;;;;;;10267624;28;20054;-62
2022/05/12 10:46:15;;;;;;;5.70;1.00;;;;;;;;;;10260971;28;20502;-62
2022/05/12 10:51:11;;;;;;;;;;;;;;;;;;10265812;28;20045;-63
2022/05/12 10:56:26;;;;;;;5.82;1.10;;;;;;;;;;10264849;28;20024;-62
2022/05/12 11:01:46;;;;;;;6.05;1.30;;;;;;;;;;10263570;28;20503;-62
2022/05/12 11:06:49;;;;;;;4.32;1.02;;;;;;;;;;10259665;28;20107;-61
2022/05/12 11:11:49;;;;;;;7.20;0.88;;;;;;;;;;10255801;28;20144;-62
2022/05/12 11:16:50;;;;;;;5.70;0.95;;;;;;;;;;10277777;28;20938;-62
2022/05/12 11:21:46;;;;;;;6.07;0.90;;;;;;;;;;10305815;28;20052;-62
2022/05/12 11:26:45;;;;;;;5.95;0.85;;;;;;;;;;10271865;28;20079;-63
2022/05/12 11:32:04;;;;;;;5.50;1.00;;;;;;;;;;10286411;28;20504;-62
2022/05/12 11:37:20;;;;;;;5.18;1.05;;;;;;;;;;10240784;28;20072;-62
2022/05/12 11:42:21;;;;;;;6.50;1.08;;;;;;;;;;10234148;28;20503;-63
2022/05/12 11:47:27;;;;;;;7.63;1.38;;;;;;;;;;10240734;28;20110;-63
2022/05/12 11:52:29;;;;;;;3.53;0.73;;;;;;;;;;10241549;28;20041;-62
2022/05/12 11:57:45;;;;;;;5.88;1.20;;;;;;;;;;10239582;28;20134;-62
2022/05/12 12:02:46;;;;;;;3.53;0.80;;;;;;;;;;10238337;28;20104;-62
2022/05/12 12:07:58;;;;;;;4.70;1.20;;;;;;;;;;10242951;28;20709;-62
2022/05/12 12:12:57;;;;;;;3.33;0.80;;;;;;;;;;10267237;28;20136;-62
2022/05/12 12:17:53;;;;;;;5.43;0.90;;;;;;;;;;10257328;28;20055;-63
2022/05/12 12:22:52;;;;;;;3.22;0.77;;;;;;;;;;10263380;28;20163;-62
2022/05/12 12:27:52;;;;;;;7.38;1.02;;;;;;;;;;10264193;28;20503;-63
2022/05/12 12:33:08;;;;;;;7.07;0.98;;;;;;;;;;10262127;28;20053;-62
2022/05/12 12:38:04;;;;;;;3.63;0.80;;;;;;;;;;10266605;28;20077;-62
2022/05/12 12:43:10;;;;;;;4.97;0.73;;;;;;;;;;10274420;28;20049;-63
2022/05/12 12:48:10;;;;;;;3.65;0.90;;;;;;;;;;10264276;28;20053;-62
2022/05/12 12:53:10;;;;;;;5.28;0.70;;;;;;;;;;10235749;28;20083;-62
2022/05/12 12:58:12;;;;;;;5.30;0.90;;;;;;;;;;10270670;28;20080;-63
2022/05/12 13:03:17;;;;;;;3.25;1.08;;;;;;;;;;10251585;28;20148;-63
2022/05/12 13:08:27;;;;;;;5.45;0.80;;;;;;;;;;10263966;28;20048;-63
2022/05/12 13:13:24;;;;;;;7.75;1.50;;;;;;;;;;10254932;28;20545;-62
2022/05/12 13:18:25;;;;;;;5.38;0.90;;;;;;;;;;10255655;28;20744;-62
2022/05/12 13:23:36;;;;;;;7.07;1.02;;;;;;;;;;10259452;28;20059;-62
2022/05/12 13:28:35;;;;;;;6.15;1.23;;;;;;;;;;10248121;28;20045;-63
2022/05/12 13:33:32;;;;;;;5.45;0.90;;;;;;;;;;10256925;28;20065;-64
2022/05/12 13:38:29;;;;;;;5.93;0.98;;;;;;;;;;10256335;28;20506;-61
2022/05/12 13:43:43;;;;;;;4.25;1.00;;;;;;;;;;10250467;28;20045;-64
2022/05/12 13:48:56;;;;;;;2.58;0.65;;;;;;;;;;10259061;28;20142;-63
2022/05/12 13:53:52;;;;;;;4.85;0.80;;;;;;;;;;10249939;28;20102;-63
2022/05/12 13:58:51;;;;;;;7.68;1.20;;;;;;;;;;10247647;28;20653;-63
2022/05/12 14:04:02;;;;;;;5.07;1.17;;;;;;;;;;10241454;28;20530;-64
2022/05/12 14:09:16;;;;;;;5.65;1.15;;;;;;;;;;10267674;28;20045;-63
2022/05/12 14:19:49;;;;;;;3.95;0.68;;;;;;;;;;10264789;28;20148;-63
2022/05/12 14:24:47;;;;;;;4.78;1.27;;;;;;;;;;10271871;28;20103;-63
2022/05/12 14:29:44;;;;;;;6.30;1.27;;;;;;;;;;10255548;28;20730;-63
2022/05/12 14:34:41;;;;;;;5.22;1.20;;;;;;;;;;10236203;28;20116;-64
2022/05/12 14:39:37;;;;;;;8.85;2.20;;;;;;;;;;10245619;28;20072;-63
2022/05/12 14:44:34;;;;;;;4.75;1.33;;;;;;;;;;10243576;28;20037;-64
2022/05/12 14:49:42;;;;;;;6.40;1.00;;;;;;;;;;10240533;28;20077;-62
2022/05/12 14:54:38;;;;;;;4.70;1.13;;;;;;;;;;10237007;28;20550;-64
2022/05/12 14:59:35;;;;;;;3.53;1.13;;;;;;;;;;10239892;28;20095;-61
2022/05/12 15:04:32;;;;;;;6.85;1.33;;;;;;;;;;10243785;28;20060;-64
2022/05/12 15:09:29;;;;;;;5.93;1.67;;;;;;;;;;10250619;28;20566;-63
2022/05/12 15:14:27;;;;;;;7.85;1.40;;;;;;;;;;10110673;28;20134;-63
2022/05/12 15:19:24;;;;;;;7.30;1.58;;;;;;;;;;10244308;28;20049;-63
2022/05/12 15:24:20;;;;;;;7.88;1.35;;;;;;;;;;10234466;28;20078;-63
2022/05/12 15:29:16;;;;;;;7.00;1.20;;;;;;;;;;10305122;28;20521;-63
2022/05/12 15:34:13;;;;;;;13.13;1.70;;;;;;;;;;10299067;28;20199;-63
2022/05/12 15:39:11;;;;;;;11.60;2.00;;;;;;;;;;10269738;28;20060;-63
2022/05/12 15:44:11;;;;;;;7.50;1.63;;;;;;;;;;10268288;28;20106;-62
2022/05/12 15:49:15;;;;;;;7.35;1.60;;;;;;;;;;10303973;28;20092;-63
2022/05/12 15:54:11;;;;;;;10.75;1.65;;;;;;;;;;10275016;28;20068;-63
2022/05/12 15:59:08;;;;;;;5.95;1.30;;;;;;;;;;10263170;28;20085;-63
2022/05/12 16:04:05;;;;;;;4.43;1.25;;;;;;;;;;10267800;28;20084;-63
2022/05/12 16:09:03;;;;;;;6.28;1.50;;;;;;;;;;10283361;28;20087;-63
2022/05/12 16:13:59;;;;;;;6.82;2.30;;;;;;;;;;10277172;28;20060;-63
2022/05/12 16:18:56;;;;;;;7.35;1.55;;;;;;;;;;10136383;28;20059;-63
2022/05/12 16:23:53;;;;;;;7.55;2.10;;;;;;;;;;10210014;28;20037;-64
2022/05/12 16:28:49;;;;;;;8.90;2.67;;;;;;;;;;10255157;28;20107;-64
2022/05/12 16:33:46;;;;;;;6.50;1.27;;;;;;;;;;10257124;28;20114;-64
2022/05/12 16:38:43;;;;;;;7.88;2.70;;;;;;;;;;10257492;28;20110;-64
2022/05/12 16:43:39;;;;;;;7.50;1.45;;;;;;;;;;10258590;28;20099;-65
2022/05/12 16:48:36;;;;;;;6.70;1.20;;;;;;;;;;10256616;28;20045;-65
2022/05/12 16:53:33;;;;;;;6.03;1.27;;;;;;;;;;10257561;28;20132;-65
2022/05/12 16:58:29;;;;;;;6.13;1.05;;;;;;;;;;10255036;28;20135;-65
2022/05/12 17:03:29;;;;;;;9.00;1.25;;;;;;;;;;10256510;28;20057;-64
2022/05/12 17:08:30;;;;;;;10.50;1.15;;;;;;;;;;10254101;28;20049;-64
2022/05/12 17:13:26;;;;;;;8.25;1.33;;;;;;;;;;10257215;28;20076;-64
2022/05/12 17:18:23;;;;;;;6.47;1.63;;;;;;;;;;10262940;28;20084;-63
2022/05/12 17:23:19;;;;;;;7.20;1.55;;;;;;;;;;10234684;28;21005;-67
2022/05/12 17:28:16;;;;;;;8.18;1.80;;;;;;;;;;10253424;28;20057;-67
2022/05/12 17:33:16;;;;;;;6.32;1.63;;;;;;;;;;10255649;28;20148;-67
2022/05/12 17:38:14;;;;;;;10.50;2.25;;;;;;;;;;10256178;28;20047;-67
2022/05/12 17:43:11;;;;;;;11.23;2.28;;;;;;;;;;10252900;28;20136;-67
2022/05/12 17:48:08;;;;;;;7.45;2.10;;;;;;;;;;10270755;28;20072;-67
2022/05/12 17:53:04;;;;;;;10.55;2.03;;;;;;;;;;10267447;28;20084;-67
2022/05/12 17:58:00;;;;;;;5.93;1.30;;;;;;;;;;10244134;28;20140;-63
2022/05/12 18:02:57;;;;;;;7.15;1.42;;;;;;;;;;10237172;28;20555;-64
2022/05/12 18:07:53;;;;;;;7.40;1.77;;;;;;;;;;10233672;28;20052;-66
2022/05/12 18:12:50;;;;;;;8.15;1.63;;;;;;;;;;10259944;28;20057;-67
2022/05/12 18:17:53;;;;;;;15.27;3.80;;;;;;;;;;10249102;28;20067;-66
2022/05/12 18:22:49;;;;;;;9.68;2.90;;;;;;;;;;10272143;28;20128;-66
2022/05/12 18:27:46;;;;;;;9.18;2.13;;;;;;;;;;10270475;28;20049;-67
2022/05/12 18:32:42;;;;;;;7.72;1.60;;;;;;;;;;10271902;28;20073;-67
2022/05/12 18:37:38;;;;;;;7.55;1.90;;;;;;;;;;10273718;28;20091;-67
2022/05/12 18:42:35;;;;;;;9.13;1.58;;;;;;;;;;10242975;28;20049;-66
2022/05/12 18:47:31;;;;;;;7.35;1.58;;;;;;;;;;10243937;28;20057;-67
2022/05/12 18:52:28;;;;;;;11.05;2.00;;;;;;;;;;10280070;28;20060;-67
2022/05/12 18:57:24;;;;;;;8.23;2.10;;;;;;;;;;10277528;28;20103;-66
2022/05/12 19:02:21;;;;;;;9.15;2.15;;;;;;;;;;10263118;28;20091;-66
2022/05/12 19:07:21;;;;;;;11.20;2.38;;;;;;;;;;10258989;28;20132;-66
2022/05/12 19:12:25;;;;;;;7.53;1.90;;;;;;;;;;10173091;28;20082;-67
2022/05/12 19:17:21;;;;;;;13.05;3.90;;;;;;;;;;10178622;28;20046;-66
2022/05/12 19:22:18;;;;;;;11.38;2.35;;;;;;;;;;10259344;28;20076;-67
2022/05/12 19:27:14;;;;;;;7.47;2.05;;;;;;;;;;10259879;28;20044;-66
2022/05/12 19:32:11;;;;;;;7.40;1.38;;;;;;;;;;10267433;28;20859;-66
2022/05/12 19:37:07;;;;;;;8.13;2.03;;;;;;;;;;10276748;28;20073;-66
2022/05/12 19:42:04;;;;;;;9.07;2.10;;;;;;;;;;10261295;28;20072;-67
2022/05/12 19:47:00;;;;;;;7.85;2.45;;;;;;;;;;10267859;28;20049;-67
2022/05/12 19:52:03;;;;;;;11.77;5.18;;;;;;;;;;10242937;28;20048;-65
2022/05/12 19:56:59;;;;;;;11.55;2.35;;;;;;;;;;10257084;28;20417;-69
2022/05/12 20:01:56;;;;;;;9.55;2.83;;;;;;;;;;10262104;28;20094;-67
2022/05/12 20:06:52;;;;;;;6.65;1.77;;;;;;;;;;10258525;28;20057;-67
2022/05/12 20:11:51;;;;;;;8.80;1.58;;;;;;;;;;10244454;28;20052;-66
2022/05/12 20:16:49;;;;;;;14.85;3.22;;;;;;;;;;10240950;28;20065;-67
2022/05/12 20:21:45;;;;;;;9.85;2.88;;;;;;;;;;10246816;28;20068;-67
2022/05/12 20:26:42;;;;;;;6.80;1.45;;;;;;;;;;10269322;28;20087;-67
2022/05/12 20:31:39;;;;;;;9.70;2.53;;;;;;;;;;10270517;28;20041;-67
2022/05/12 20:36:35;;;;;;;8.10;2.60;;;;;;;;;;10278926;28;20095;-66
2022/05/12 20:41:32;;;;;;;7.85;2.25;;;;;;;;;;10261420;28;20084;-67
2022/05/12 20:46:29;;;;;;;7.15;1.98;;;;;;;;;;10281327;28;20084;-66
2022/05/12 20:51:27;;;;;;;7.07;1.80;;;;;;;;;;10280142;28;20048;-66
2022/05/12 20:56:25;;;;;;;4.05;1.10;;;;;;;;;;10272387;28;21784;-67
2022/05/12 21:01:24;;;;;;;7.78;1.80;;;;;;;;;;10232851;28;20481;-65
2022/05/12 21:06:21;;;;;;;10.55;1.88;;;;;;;;;;10134360;28;20045;-65
2022/05/12 21:11:18;;;;;;;8.90;1.83;;;;;;;;;;10275234;28;20045;-65
2022/05/12 21:16:16;;;;;;;9.05;1.88;;;;;;;;;;10279007;28;20086;-65
2022/05/12 21:21:12;;;;;;;7.05;1.55;;;;;;;;;;10258333;28;20069;-65
2022/05/12 21:26:09;;;;;;;7.35;1.50;;;;;;;;;;10271415;28;20049;-67
2022/05/12 21:31:08;;;;;;;9.10;2.03;;;;;;;;;;10275992;28;20175;-67
2022/05/12 21:36:05;;;;;;;8.43;1.65;;;;;;;;;;10270256;28;20116;-66
2022/05/12 21:41:02;;;;;;;10.60;2.03;;;;;;;;;;10273943;28;20103;-66
2022/05/12 21:45:58;;;;;;;6.55;1.88;;;;;;;;;;10272762;28;20171;-70
2022/05/12 21:50:59;;;;;;;7.22;1.73;;;;;;;;;;10272996;28;20568;-64
2022/05/12 21:55:57;;;;;;;7.18;1.52;;;;;;;;;;10287994;28;20037;-65
2022/05/12 22:06:09;;;;;;;8.70;1.60;;;;;;;;;;10269444;28;20422;-62
2022/05/12 22:11:05;;;;;;;5.90;1.27;;;;;;;;;;10271754;28;20095;-63
2022/05/12 22:16:02;;;;;;;9.00;1.90;;;;;;;;;;10268114;28;20087;-63
2022/05/12 22:21:03;;;;;;;7.32;1.52;;;;;;;;;;10267612;28;20056;-62
2022/05/12 22:25:59;;;;;;;6.65;1.52;;;;;;;;;;10275574;28;20636;-62
2022/05/12 22:30:55;;;;;;;8.32;2.00;;;;;;;;;;10282937;28;20506;-64
2022/05/12 22:35:51;;;;;;;6.57;1.48;;;;;;;;;;10273755;28;20143;-65
2022/05/12 22:40:48;;;;;;;7.13;1.42;;;;;;;;;;10271786;28;20049;-61
2022/05/12 22:45:46;;;;;;;7.07;1.15;;;;;;;;;;10260418;28;20053;-63
2022/05/12 22:50:42;;;;;;;9.95;1.65;;;;;;;;;;10263652;28;20144;-62
2022/05/12 22:55:38;;;;;;;8.07;1.52;;;;;;;;;;10246483;28;20040;-63
2022/05/12 23:00:34;;;;;;;8.02;1.73;;;;;;;;;;10263054;28;20175;-65
2022/05/12 23:05:31;;;;;;;6.65;1.58;;;;;;;;;;10269332;28;20072;-66
2022/05/12 23:10:27;;;;;;;7.32;1.67;;;;;;;;;;10263503;28;20449;-65
2022/05/12 23:15:25;;;;;;;6.88;1.42;;;;;;;;;;10275024;28;20048;-65
2022/05/12 23:25:40;;;;;;;10.02;2.38;;;;;;;;;;10264306;28;20131;-65
2022/05/12 23:30:37;;;;;;;6.60;1.45;;;;;;;;;;10255757;28;20053;-64
2022/05/12 23:35:34;;;;;;;8.98;1.52;;;;;;;;;;10267789;28;20076;-65
2022/05/12 23:40:50;;;;;;;7.25;1.40;;;;;;;;;;10257820;28;20059;-65
2022/05/12 23:45:46;;;;;;;7.45;1.33;;;;;;;;;;10262900;28;20127;-62
2022/05/12 23:50:42;;;;;;;6.25;1.80;;;;;;;;;;10268541;28;20044;-63
2022/05/12 23:55:39;;;;;;;8.18;1.35;;;;;;;;;;10264301;28;20045;-63
